Time;durP1;ratioP1;P1;durP2;ratioP2;P2;SDS_P1;SDS_P2;PMS_P1;PMS_P2;Temp;Humidity;BMP_temperature;BMP_pressure;BME280_temperature;BME280_humidity;BME280_pressure;Samples;Min_cycle;Max_cycle;Signal;HPM_P1;HPM_P2
2023/10/27 00:01:08;;;;;;;55.70;24.63;;;11.40;99.90;;;;;;5063568;28;20478;-79
2023/10/27 00:03:33;;;;;;;59.75;27.33;;;11.40;99.90;;;;;;5061142;28;20024;-78
2023/10/27 00:05:59;;;;;;;59.08;25.98;;;11.40;99.90;;;;;;5055419;28;20024;-78
2023/10/27 00:08:25;;;;;;;52.95;24.98;;;11.40;99.90;;;;;;5060383;28;20510;-78
2023/10/27 00:10:50;;;;;;;60.78;26.63;;;11.40;99.90;;;;;;5061957;28;20082;-78
2023/10/27 00:13:16;;;;;;;55.08;25.45;;;11.40;99.90;;;;;;5056936;28;20040;-79
2023/10/27 00:15:42;;;;;;;62.00;25.63;;;11.40;99.90;;;;;;5056292;28;20429;-78
2023/10/27 00:18:07;;;;;;;48.25;24.15;;;11.40;99.90;;;;;;5063945;28;20520;-79
2023/10/27 00:20:33;;;;;;;55.92;27.40;;;11.50;99.90;;;;;;5060245;28;20754;-79
2023/10/27 00:22:59;;;;;;;54.25;25.08;;;11.50;99.90;;;;;;5053060;28;20496;-79
2023/10/27 00:25:25;;;;;;;72.43;30.00;;;11.50;99.90;;;;;;5058162;28;20036;-79
2023/10/27 00:27:50;;;;;;;48.75;23.50;;;11.40;99.90;;;;;;5055741;28;20021;-79
2023/10/27 00:30:17;;;;;;;65.72;29.23;;;11.50;99.90;;;;;;5061853;28;20024;-79
2023/10/27 00:32:43;;;;;;;59.78;26.88;;;11.50;99.90;;;;;;5052034;28;20032;-79
2023/10/27 00:35:09;;;;;;;58.83;26.42;;;11.50;99.90;;;;;;5062915;28;20025;-79
2023/10/27 00:37:35;;;;;;;57.13;25.73;;;11.50;99.90;;;;;;5049185;28;20036;-80
2023/10/27 00:40:02;;;;;;;56.10;25.33;;;11.50;99.90;;;;;;5061552;28;20109;-79
2023/10/27 00:42:28;;;;;;;63.88;27.30;;;11.50;99.90;;;;;;5056246;28;20599;-79
2023/10/27 00:44:54;;;;;;;74.35;29.58;;;11.50;99.90;;;;;;5054521;28;20037;-78
2023/10/27 00:47:19;;;;;;;67.57;28.20;;;11.50;99.90;;;;;;5060384;28;20039;-79
2023/10/27 00:49:45;;;;;;;59.17;26.38;;;11.50;99.90;;;;;;5061942;28;20042;-79
2023/10/27 00:52:14;;;;;;;65.65;27.08;;;11.50;99.90;;;;;;5050985;28;20104;-79
2023/10/27 00:54:42;;;;;;;63.78;26.85;;;11.50;99.90;;;;;;5060694;28;20025;-79
2023/10/27 00:57:09;;;;;;;86.75;32.45;;;11.50;99.90;;;;;;5061532;28;20492;-78
2023/10/27 00:59:36;;;;;;;68.35;28.35;;;11.50;99.90;;;;;;5048905;28;20028;-79
2023/10/27 01:02:02;;;;;;;68.03;29.00;;;11.50;99.90;;;;;;5061300;28;20029;-79
2023/10/27 01:04:28;;;;;;;78.03;30.10;;;11.50;99.90;;;;;;5054287;28;20512;-78
2023/10/27 01:06:55;;;;;;;73.13;30.92;;;11.50;99.90;;;;;;5058024;28;20017;-80
2023/10/27 01:09:21;;;;;;;84.97;31.00;;;11.50;99.90;;;;;;5065949;28;20025;-80
2023/10/27 01:11:48;;;;;;;62.25;27.60;;;11.50;99.90;;;;;;5058610;28;20013;-79
2023/10/27 01:14:14;;;;;;;64.65;27.52;;;11.50;99.90;;;;;;5062489;28;20025;-79
2023/10/27 01:16:40;;;;;;;78.07;30.73;;;11.50;99.90;;;;;;5055813;28;20032;-80
2023/10/27 01:19:05;;;;;;;69.47;28.90;;;11.60;99.90;;;;;;5055713;28;20070;-78
2023/10/27 01:21:31;;;;;;;57.55;24.80;;;11.60;99.90;;;;;;5062416;28;20504;-78
2023/10/27 01:23:57;;;;;;;57.13;24.65;;;11.60;99.90;;;;;;5048878;28;20150;-78
2023/10/27 01:26:23;;;;;;;71.05;28.77;;;11.60;99.90;;;;;;5048610;28;20502;-78
2023/10/27 01:28:48;;;;;;;89.88;31.92;;;11.60;99.90;;;;;;5057565;28;20029;-78
2023/10/27 01:31:15;;;;;;;75.20;29.75;;;11.60;99.90;;;;;;5064466;28;20033;-78
2023/10/27 01:33:41;;;;;;;54.40;24.08;;;11.60;99.90;;;;;;5061528;28;20086;-78
2023/10/27 01:36:07;;;;;;;66.03;28.15;;;11.60;99.90;;;;;;5061269;28;20021;-78
2023/10/27 01:38:32;;;;;;;82.05;30.77;;;11.60;99.90;;;;;;5054215;28;20566;-78
2023/10/27 01:40:58;;;;;;;77.97;29.95;;;11.60;99.90;;;;;;5058838;28;20689;-82
2023/10/27 01:43:24;;;;;;;73.25;28.67;;;11.60;99.90;;;;;;5053900;28;20648;-78
2023/10/27 01:45:49;;;;;;;71.68;28.15;;;11.60;99.90;;;;;;5061895;28;20032;-78
2023/10/27 01:48:15;;;;;;;49.70;24.05;;;11.70;99.90;;;;;;5052393;28;20027;-78
2023/10/27 01:50:41;;;;;;;60.72;26.30;;;11.60;99.90;;;;;;5063439;28;20025;-78
2023/10/27 01:53:07;;;;;;;70.60;28.20;;;11.70;99.90;;;;;;5049394;28;20017;-78
2023/10/27 01:55:32;;;;;;;74.82;28.70;;;11.70;99.90;;;;;;5061377;28;20032;-78
2023/10/27 01:57:58;;;;;;;86.75;27.77;;;11.70;99.90;;;;;;5043907;28;20450;-78
2023/10/27 02:00:24;;;;;;;73.82;28.45;;;11.70;99.90;;;;;;5041656;28;20032;-78
2023/10/27 02:02:49;;;;;;;78.18;30.45;;;11.70;99.90;;;;;;5042120;28;20036;-78
2023/10/27 02:05:15;;;;;;;68.57;26.80;;;11.70;99.90;;;;;;5043814;28;20291;-78
2023/10/27 02:07:41;;;;;;;71.95;27.13;;;11.70;99.90;;;;;;5049724;28;20119;-77
2023/10/27 02:10:07;;;;;;;76.97;27.98;;;11.70;99.90;;;;;;5058587;28;20036;-77
2023/10/27 02:12:36;;;;;;;69.50;27.38;;;11.70;99.90;;;;;;5064675;28;20425;-77
2023/10/27 02:15:02;;;;;;;65.32;25.30;;;11.70;99.90;;;;;;5061865;28;20084;-78
2023/10/27 02:17:27;;;;;;;75.78;27.88;;;11.70;99.90;;;;;;5062205;28;20024;-79
2023/10/27 02:19:55;;;;;;;83.35;28.08;;;11.70;99.90;;;;;;5062214;28;20021;-78
2023/10/27 02:22:21;;;;;;;70.78;26.02;;;11.70;99.90;;;;;;5059703;28;20523;-78
2023/10/27 02:24:47;;;;;;;74.68;27.42;;;11.70;99.90;;;;;;5052234;28;20029;-77
2023/10/27 02:27:13;;;;;;;54.08;23.63;;;11.70;99.90;;;;;;5058375;28;20021;-77
2023/10/27 02:29:38;;;;;;;80.47;27.00;;;11.70;99.90;;;;;;5062447;28;20405;-79
2023/10/27 02:32:04;;;;;;;76.13;27.25;;;11.70;99.90;;;;;;5055756;28;20032;-77
2023/10/27 02:34:30;;;;;;;63.63;25.38;;;11.70;99.90;;;;;;5053818;28;20040;-77
2023/10/27 02:36:56;;;;;;;61.78;25.17;;;11.70;99.90;;;;;;5059980;28;20025;-77
2023/10/27 02:39:21;;;;;;;63.13;24.48;;;11.70;99.90;;;;;;5059825;28;20016;-77
2023/10/27 02:41:47;;;;;;;64.30;25.80;;;11.70;99.90;;;;;;5052335;28;20044;-77
2023/10/27 02:44:13;;;;;;;72.68;25.70;;;11.70;99.90;;;;;;5058657;28;20033;-78
2023/10/27 02:46:39;;;;;;;49.08;21.60;;;11.80;99.90;;;;;;5065738;28;20028;-77
2023/10/27 02:49:05;;;;;;;145.77;27.33;;;11.80;99.90;;;;;;5055304;28;20484;-76
2023/10/27 02:51:31;;;;;;;64.57;25.73;;;11.70;99.90;;;;;;5052736;28;20029;-77
2023/10/27 02:53:57;;;;;;;55.78;23.33;;;11.80;99.90;;;;;;5053205;28;20031;-76
2023/10/27 02:56:23;;;;;;;63.45;25.13;;;11.80;99.90;;;;;;5058391;28;20041;-77
2023/10/27 02:58:49;;;;;;;62.25;23.48;;;11.80;99.90;;;;;;5061149;28;20036;-76
2023/10/27 03:01:14;;;;;;;76.60;26.73;;;11.70;99.90;;;;;;5038770;28;20036;-75
2023/10/27 03:03:41;;;;;;;64.65;24.85;;;11.70;99.90;;;;;;5055036;28;20385;-76
2023/10/27 03:06:07;;;;;;;54.15;23.02;;;11.70;99.90;;;;;;5063805;28;20066;-76
2023/10/27 03:08:34;;;;;;;67.15;26.65;;;11.80;99.90;;;;;;5061427;28;20388;-76
2023/10/27 03:11:00;;;;;;;69.30;24.58;;;11.80;99.90;;;;;;5056807;28;20017;-76
2023/10/27 03:13:30;;;;;;;61.25;23.25;;;11.80;99.90;;;;;;5062831;28;20031;-76
2023/10/27 03:15:58;;;;;;;73.70;26.02;;;11.80;99.90;;;;;;5065101;28;20032;-76
2023/10/27 03:18:24;;;;;;;74.53;26.77;;;11.80;99.90;;;;;;5059209;28;20023;-76
2023/10/27 03:20:56;;;;;;;78.03;27.13;;;11.80;99.90;;;;;;5059139;28;20109;-77
2023/10/27 03:23:26;;;;;;;71.97;24.85;;;11.80;99.90;;;;;;5045548;28;20381;-75
2023/10/27 03:25:52;;;;;;;58.80;23.23;;;11.80;99.90;;;;;;5060030;28;20078;-76
2023/10/27 03:28:19;;;;;;;58.08;24.42;;;11.80;99.90;;;;;;5066987;28;20037;-77
2023/10/27 03:30:44;;;;;;;72.80;26.30;;;11.80;99.90;;;;;;5061983;28;20024;-77
2023/10/27 03:33:10;;;;;;;73.13;25.73;;;11.80;99.90;;;;;;5054884;28;20550;-74
2023/10/27 03:35:40;;;;;;;62.47;24.67;;;11.80;99.90;;;;;;5060963;28;20120;-76
2023/10/27 03:38:06;;;;;;;72.10;25.58;;;11.80;99.90;;;;;;5064629;28;20020;-76
2023/10/27 03:40:31;;;;;;;89.55;26.15;;;11.80;99.90;;;;;;5057354;28;20027;-76
2023/10/27 03:42:57;;;;;;;61.50;21.63;;;11.80;99.90;;;;;;5056801;28;20960;-76
2023/10/27 03:45:23;;;;;;;50.55;21.92;;;11.80;99.90;;;;;;5063198;28;20524;-76
2023/10/27 03:47:48;;;;;;;110.32;28.30;;;11.80;99.90;;;;;;5059086;28;20120;-76
2023/10/27 03:50:14;;;;;;;81.75;26.75;;;11.80;99.90;;;;;;5062495;28;20112;-76
2023/10/27 03:52:40;;;;;;;101.63;29.45;;;11.80;99.90;;;;;;5053992;28;20053;-75
2023/10/27 03:55:07;;;;;;;90.45;28.98;;;11.80;99.90;;;;;;5061087;28;20381;-76
2023/10/27 03:57:36;;;;;;;96.43;25.38;;;11.80;99.90;;;;;;5055378;28;20076;-76
2023/10/27 04:00:04;;;;;;;77.80;26.48;;;11.80;99.90;;;;;;5059459;28;20104;-76
2023/10/27 04:02:31;;;;;;;81.90;26.42;;;11.70;99.90;;;;;;5062370;28;20074;-76
2023/10/27 04:04:56;;;;;;;61.50;22.45;;;11.80;99.90;;;;;;5056706;28;20128;-75
2023/10/27 04:07:22;;;;;;;83.65;24.70;;;11.80;99.90;;;;;;5054160;28;20132;-77
2023/10/27 04:09:48;;;;;;;72.38;24.40;;;11.80;99.90;;;;;;5063203;28;20103;-77
2023/10/27 04:12:14;;;;;;;77.45;21.70;;;11.80;99.90;;;;;;5049214;28;20115;-77
2023/10/27 04:14:39;;;;;;;74.40;23.63;;;11.80;99.90;;;;;;5062284;28;20021;-76
2023/10/27 04:17:05;;;;;;;75.55;23.02;;;11.80;99.90;;;;;;5058469;28;20822;-76
2023/10/27 04:19:31;;;;;;;69.10;21.50;;;11.70;99.90;;;;;;5055563;28;20021;-76
2023/10/27 04:21:56;;;;;;;84.55;23.17;;;11.70;99.90;;;;;;5060750;28;20055;-76
2023/10/27 04:24:22;;;;;;;57.05;21.05;;;11.80;99.90;;;;;;5049497;28;20035;-76
2023/10/27 04:26:47;;;;;;;68.18;22.30;;;11.80;99.90;;;;;;5062819;28;20048;-76
2023/10/27 04:29:13;;;;;;;83.55;23.08;;;11.70;99.90;;;;;;5060395;28;20107;-75
2023/10/27 04:31:39;;;;;;;62.90;20.90;;;11.70;99.90;;;;;;5054732;28;20021;-76
2023/10/27 04:34:04;;;;;;;74.40;19.75;;;11.70;99.90;;;;;;5057441;28;20021;-76
2023/10/27 04:36:30;;;;;;;68.43;21.70;;;11.80;99.90;;;;;;5062767;28;20038;-76
2023/10/27 04:38:56;;;;;;;78.20;21.88;;;11.80;99.90;;;;;;5057272;28;20459;-75
2023/10/27 04:41:22;;;;;;;51.85;18.67;;;11.80;99.90;;;;;;5054343;28;20025;-75
2023/10/27 04:43:47;;;;;;;59.85;20.08;;;11.80;99.90;;;;;;5062775;28;20071;-76
2023/10/27 04:46:13;;;;;;;54.22;18.10;;;11.80;99.90;;;;;;5060994;28;20024;-75
2023/10/27 04:48:39;;;;;;;65.93;21.38;;;11.70;99.90;;;;;;5054532;28;20028;-76
2023/10/27 04:51:05;;;;;;;30.17;13.02;;;11.70;99.90;;;;;;5058443;28;20032;-76
2023/10/27 04:53:31;;;;;;;72.75;20.83;;;11.70;99.90;;;;;;5051424;28;20040;-75
2023/10/27 04:55:57;;;;;;;52.65;19.00;;;11.70;99.90;;;;;;5060607;28;20456;-76
2023/10/27 04:58:23;;;;;;;49.83;18.15;;;11.70;99.90;;;;;;5047365;28;20025;-76
2023/10/27 05:00:49;;;;;;;60.50;17.95;;;11.70;99.90;;;;;;5062431;28;20027;-75
2023/10/27 05:03:15;;;;;;;29.17;13.48;;;11.70;99.90;;;;;;5056981;28;20028;-75
2023/10/27 05:05:41;;;;;;;46.08;16.90;;;11.70;99.90;;;;;;5052558;28;20063;-75
2023/10/27 05:08:07;;;;;;;51.00;18.73;;;11.70;99.90;;;;;;5062437;28;20428;-75
2023/10/27 05:10:33;;;;;;;57.17;20.13;;;11.70;99.90;;;;;;5059415;28;20121;-75
2023/10/27 05:12:58;;;;;;;51.13;19.17;;;11.70;99.90;;;;;;5053827;28;20028;-75
2023/10/27 05:15:25;;;;;;;48.65;17.58;;;11.70;99.90;;;;;;5057458;28;20036;-75
2023/10/27 05:17:51;;;;;;;56.95;19.52;;;11.70;99.90;;;;;;5060884;28;20013;-75
2023/10/27 05:20:17;;;;;;;71.80;20.10;;;11.70;99.90;;;;;;5047603;28;20037;-75
2023/10/27 05:22:42;;;;;;;29.63;12.50;;;11.70;99.90;;;;;;5061551;28;20020;-75
2023/10/27 05:25:08;;;;;;;53.47;18.30;;;11.70;99.90;;;;;;5055069;28;20029;-75
2023/10/27 05:27:34;;;;;;;37.40;16.00;;;11.70;99.90;;;;;;5053330;28;20031;-76
2023/10/27 05:30:03;;;;;;;46.15;16.35;;;11.70;99.90;;;;;;5062104;28;20029;-75
2023/10/27 05:32:29;;;;;;;63.95;18.42;;;11.70;99.90;;;;;;5058922;28;20028;-75
2023/10/27 05:34:56;;;;;;;43.50;17.33;;;11.70;99.90;;;;;;5052154;28;20082;-75
2023/10/27 05:37:21;;;;;;;42.22;14.55;;;11.70;99.90;;;;;;5056937;28;20017;-75
2023/10/27 05:39:48;;;;;;;42.30;15.93;;;11.70;99.90;;;;;;5061836;28;20465;-75
2023/10/27 05:42:14;;;;;;;31.10;13.65;;;11.70;99.90;;;;;;5053455;28;20531;-75
2023/10/27 05:44:41;;;;;;;35.47;14.43;;;11.70;99.90;;;;;;5054231;28;20017;-76
2023/10/27 05:47:07;;;;;;;32.70;14.90;;;11.70;99.90;;;;;;5049640;28;20402;-76
2023/10/27 05:49:32;;;;;;;41.63;16.40;;;11.60;99.90;;;;;;5048613;28;20029;-76
2023/10/27 05:52:02;;;;;;;31.30;14.25;;;11.70;99.90;;;;;;5050162;28;20031;-75
2023/10/27 05:54:29;;;;;;;31.35;13.95;;;11.70;99.90;;;;;;5033666;28;20028;-75
2023/10/27 05:56:54;;;;;;;35.40;14.15;;;11.70;99.90;;;;;;5059482;28;20070;-75
2023/10/27 05:59:20;;;;;;;43.22;15.20;;;11.70;99.90;;;;;;5051858;28;20051;-75
2023/10/27 06:01:48;;;;;;;28.73;11.90;;;11.70;99.90;;;;;;5056798;28;20447;-75
2023/10/27 06:04:14;;;;;;;31.42;13.98;;;11.70;99.90;;;;;;5061410;28;20074;-76
2023/10/27 06:06:40;;;;;;;38.33;14.55;;;11.70;99.90;;;;;;5047209;28;20025;-76
2023/10/27 06:09:06;;;;;;;39.40;15.23;;;11.60;99.90;;;;;;5059463;28;20043;-75
2023/10/27 06:11:32;;;;;;;35.30;14.45;;;11.60;99.90;;;;;;5064494;28;20024;-75
2023/10/27 06:13:58;;;;;;;40.42;14.43;;;11.70;99.90;;;;;;5051513;28;20067;-76
2023/10/27 06:16:24;;;;;;;34.38;13.77;;;11.60;99.90;;;;;;5056504;28;20019;-75
2023/10/27 06:18:52;;;;;;;26.83;11.18;;;11.60;99.90;;;;;;5056283;28;20734;-76
2023/10/27 06:21:18;;;;;;;32.70;13.60;;;11.60;99.90;;;;;;5055441;28;20020;-75
2023/10/27 06:23:44;;;;;;;36.55;14.07;;;11.70;99.90;;;;;;5052680;28;20025;-75
2023/10/27 06:26:10;;;;;;;23.38;9.98;;;11.70;99.90;;;;;;5049707;28;20037;-76
2023/10/27 06:28:36;;;;;;;33.17;13.88;;;11.70;99.90;;;;;;5049645;28;20067;-76
2023/10/27 06:31:05;;;;;;;35.65;14.50;;;11.70;99.90;;;;;;5053796;28;20028;-76
2023/10/27 06:33:33;;;;;;;30.92;14.02;;;11.70;99.90;;;;;;5049214;28;20493;-76
2023/10/27 06:35:59;;;;;;;33.30;13.55;;;11.70;99.90;;;;;;5054302;28;20040;-75
2023/10/27 06:38:25;;;;;;;40.08;14.45;;;11.60;99.90;;;;;;5060812;28;20589;-76
2023/10/27 06:40:51;;;;;;;36.83;14.88;;;11.70;99.90;;;;;;5046311;28;20032;-76
2023/10/27 06:43:17;;;;;;;32.67;13.32;;;11.70;99.90;;;;;;5049247;28;20025;-76
2023/10/27 06:45:43;;;;;;;32.83;13.05;;;11.70;99.90;;;;;;5046084;28;20041;-76
2023/10/27 06:48:09;;;;;;;29.58;12.73;;;11.60;99.90;;;;;;5046411;28;20029;-76
2023/10/27 06:50:34;;;;;;;31.58;12.18;;;11.70;99.90;;;;;;5052254;28;20036;-76
2023/10/27 06:53:00;;;;;;;30.38;12.43;;;11.70;99.90;;;;;;5055736;28;20070;-76
2023/10/27 06:55:26;;;;;;;35.53;14.13;;;11.70;99.90;;;;;;5049847;28;20103;-76
2023/10/27 06:57:52;;;;;;;35.15;13.23;;;11.70;99.90;;;;;;5045683;28;20064;-75
2023/10/27 07:00:18;;;;;;;44.72;13.88;;;11.70;99.90;;;;;;5043384;28;20099;-75
2023/10/27 07:02:44;;;;;;;33.10;13.40;;;11.70;99.90;;;;;;5044678;28;20786;-76
2023/10/27 07:05:13;;;;;;;25.33;11.90;;;11.60;99.90;;;;;;5044949;28;20021;-76
2023/10/27 07:07:39;;;;;;;36.25;11.77;;;11.70;99.90;;;;;;5052511;28;20043;-76
2023/10/27 07:10:05;;;;;;;44.08;14.52;;;11.70;99.90;;;;;;5045471;28;20429;-76
2023/10/27 07:12:31;;;;;;;33.72;13.13;;;11.70;99.90;;;;;;5048812;28;20056;-76
2023/10/27 07:14:57;;;;;;;37.67;13.52;;;11.70;99.90;;;;;;5056067;28;20632;-75
2023/10/27 07:17:26;;;;;;;23.00;9.85;;;11.70;99.90;;;;;;5044412;28;20025;-75
2023/10/27 07:19:51;;;;;;;28.55;11.75;;;11.70;99.90;;;;;;5046732;28;20032;-76
2023/10/27 07:22:19;;;;;;;38.03;13.75;;;11.70;99.90;;;;;;5044949;28;20018;-76
2023/10/27 07:24:48;;;;;;;36.75;14.43;;;11.70;99.90;;;;;;5052654;28;20104;-75
2023/10/27 07:27:13;;;;;;;28.15;12.48;;;11.70;99.90;;;;;;5046810;28;20104;-76
2023/10/27 07:29:39;;;;;;;39.55;13.00;;;11.70;99.90;;;;;;5044735;28;20120;-76
2023/10/27 07:32:05;;;;;;;34.13;14.10;;;11.70;99.90;;;;;;5047115;28;20025;-75
2023/10/27 07:34:31;;;;;;;40.80;14.18;;;11.70;99.90;;;;;;5047294;28;20024;-76
2023/10/27 07:36:57;;;;;;;34.33;13.13;;;11.70;99.90;;;;;;5032563;28;20513;-76
2023/10/27 07:39:23;;;;;;;34.75;14.30;;;11.70;99.90;;;;;;5046977;28;20055;-76
2023/10/27 07:41:51;;;;;;;34.40;12.95;;;11.70;99.90;;;;;;5059864;28;20009;-76
2023/10/27 07:44:17;;;;;;;32.83;13.25;;;11.70;99.90;;;;;;5044749;28;20051;-76
2023/10/27 07:46:42;;;;;;;21.95;9.80;;;11.70;99.90;;;;;;5060496;28;20056;-76
2023/10/27 07:49:08;;;;;;;52.20;15.95;;;11.70;99.90;;;;;;5054573;28;20111;-75
2023/10/27 07:51:34;;;;;;;41.08;14.32;;;11.70;99.90;;;;;;5053868;28;20409;-76
2023/10/27 07:54:00;;;;;;;57.13;16.77;;;11.70;99.90;;;;;;5054883;28;20033;-76
2023/10/27 07:56:25;;;;;;;42.80;14.93;;;11.70;99.90;;;;;;5059579;28;20051;-76
2023/10/27 07:58:51;;;;;;;38.53;14.52;;;11.70;99.90;;;;;;5054095;28;20493;-76
2023/10/27 08:01:17;;;;;;;35.13;15.10;;;11.70;99.90;;;;;;5063193;28;20494;-76
2023/10/27 08:03:43;;;;;;;39.78;15.65;;;11.70;99.90;;;;;;5049601;28;20043;-76
2023/10/27 08:06:09;;;;;;;44.17;15.80;;;11.70;99.90;;;;;;5063803;28;20041;-76
2023/10/27 08:08:37;;;;;;;22.60;10.98;;;11.70;99.90;;;;;;5050347;28;20384;-76
2023/10/27 08:11:04;;;;;;;33.20;14.13;;;11.70;99.90;;;;;;5063619;28;20033;-77
2023/10/27 08:13:31;;;;;;;39.83;15.48;;;11.70;99.90;;;;;;5058640;28;20016;-76
2023/10/27 08:15:58;;;;;;;27.25;11.75;;;11.70;99.90;;;;;;5067736;28;20032;-76
2023/10/27 08:18:24;;;;;;;46.22;16.63;;;11.80;99.90;;;;;;5053555;28;20021;-76
2023/10/27 08:20:50;;;;;;;31.50;13.77;;;11.70;99.90;;;;;;5052187;28;20036;-76
2023/10/27 08:23:16;;;;;;;33.72;14.95;;;11.80;99.90;;;;;;5058077;28;20096;-75
2023/10/27 08:25:42;;;;;;;26.15;10.43;;;11.80;99.90;;;;;;5054014;28;20156;-75
2023/10/27 08:28:08;;;;;;;40.80;15.82;;;11.80;99.90;;;;;;5056467;28;20455;-75
2023/10/27 08:30:33;;;;;;;23.92;12.35;;;11.80;99.90;;;;;;5053053;28;20017;-76
2023/10/27 08:32:59;;;;;;;37.90;14.70;;;11.80;99.90;;;;;;5052561;28;20389;-76
2023/10/27 08:35:25;;;;;;;24.95;12.45;;;11.80;99.90;;;;;;5055044;28;20083;-76
2023/10/27 08:37:50;;;;;;;36.47;14.73;;;11.70;99.90;;;;;;5055239;28;20021;-76
2023/10/27 08:40:17;;;;;;;33.30;13.10;;;11.80;99.90;;;;;;5048422;28;20021;-75
2023/10/27 08:42:49;;;;;;;41.67;15.98;;;11.80;99.90;;;;;;5041140;28;20112;-76
2023/10/27 08:45:14;;;;;;;34.45;14.27;;;11.70;99.90;;;;;;5057599;28;20030;-75
2023/10/27 08:47:40;;;;;;;42.75;15.98;;;11.80;99.90;;;;;;5057043;28;20587;-76
2023/10/27 08:50:06;;;;;;;38.80;16.27;;;11.70;99.90;;;;;;5048466;28;20025;-76
2023/10/27 08:52:33;;;;;;;40.17;17.15;;;11.70;99.90;;;;;;5050209;28;20429;-76
2023/10/27 08:55:07;;;;;;;34.80;16.20;;;11.80;99.90;;;;;;5055705;28;20025;-75
2023/10/27 08:57:33;;;;;;;38.75;14.90;;;11.80;99.90;;;;;;5059431;28;20045;-76
2023/10/27 08:59:59;;;;;;;36.28;15.25;;;11.80;99.90;;;;;;5055752;28;20032;-76
2023/10/27 09:02:32;;;;;;;35.17;13.82;;;11.80;99.90;;;;;;5041641;28;20025;-76
2023/10/27 09:05:03;;;;;;;33.35;15.57;;;11.80;99.90;;;;;;5056833;28;20025;-76
2023/10/27 09:07:32;;;;;;;;;;;11.80;99.90;;;;;;5051698;28;20059;-76
2023/10/27 09:09:59;;;;;;;25.13;12.82;;;11.80;99.90;;;;;;5060599;28;19904;-76
2023/10/27 09:12:28;;;;;;;32.05;13.43;;;11.80;99.90;;;;;;5060480;28;20573;-76
2023/10/27 09:15:05;;;;;;;29.17;13.88;;;11.80;99.90;;;;;;5045976;28;20516;-76
2023/10/27 09:17:31;;;;;;;34.13;13.63;;;11.90;99.90;;;;;;5052402;28;20032;-76
2023/10/27 09:20:09;;;;;;;25.90;12.60;;;11.90;99.90;;;;;;5041197;28;20020;-76
2023/10/27 09:22:36;;;;;;;36.80;14.85;;;11.90;99.90;;;;;;5061233;28;20081;-76
2023/10/27 09:25:17;;;;;;;29.90;13.35;;;11.90;99.90;;;;;;5054046;28;20017;-76
2023/10/27 09:27:46;;;;;;;30.70;13.73;;;11.90;99.90;;;;;;5053700;28;20029;-76
2023/10/27 09:30:32;;;;;;;22.50;10.18;;;11.90;99.90;;;;;;5036110;28;20502;-76
2023/10/27 09:33:13;;;;;;;45.15;14.02;;;11.90;99.90;;;;;;5049891;28;20025;-76
2023/10/27 09:35:39;;;;;;;34.42;12.43;;;12.00;99.90;;;;;;5060402;28;20093;-76
2023/10/27 09:38:05;;;;;;;29.55;12.60;;;11.90;99.90;;;;;;5051282;28;20094;-76
2023/10/27 09:40:31;;;;;;;26.00;12.00;;;12.00;99.90;;;;;;5060246;28;20013;-76
2023/10/27 09:43:01;;;;;;;28.65;11.93;;;11.90;99.90;;;;;;5060349;28;20028;-76
2023/10/27 09:45:29;;;;;;;31.48;12.73;;;12.00;99.90;;;;;;5053392;28;20116;-76
2023/10/27 09:48:06;;;;;;;31.50;12.45;;;12.00;99.90;;;;;;5053661;28;20025;-76
2023/10/27 09:50:32;;;;;;;27.88;12.23;;;12.00;99.90;;;;;;5061883;28;20016;-76
2023/10/27 09:53:02;;;;;;;41.33;14.20;;;12.00;99.90;;;;;;5055326;28;20028;-76
2023/10/27 09:55:30;;;;;;;36.20;13.25;;;12.00;99.90;;;;;;5052368;28;20111;-76
2023/10/27 09:57:57;;;;;;;35.80;12.95;;;12.00;99.90;;;;;;5058364;28;20053;-76
2023/10/27 10:00:27;;;;;;;30.08;12.43;;;12.00;99.90;;;;;;5058775;28;20021;-76
2023/10/27 10:02:54;;;;;;;34.88;13.00;;;12.00;99.90;;;;;;5051624;28;20051;-76
2023/10/27 10:05:20;;;;;;;36.20;12.82;;;12.00;99.90;;;;;;5054065;28;20044;-76
2023/10/27 10:08:06;;;;;;;29.50;12.45;;;12.00;99.90;;;;;;5059046;28;20021;-76
2023/10/27 10:10:33;;;;;;;39.22;14.02;;;12.10;99.90;;;;;;5056999;28;20545;-75
2023/10/27 10:13:05;;;;;;;26.13;12.35;;;12.10;99.90;;;;;;5051388;28;20067;-76
2023/10/27 10:15:41;;;;;;;26.63;10.70;;;12.10;99.90;;;;;;5054934;28;20029;-76
2023/10/27 10:18:28;;;;;;;24.67;12.52;;;12.10;99.90;;;;;;5060825;28;20025;-82
2023/10/27 10:20:56;;;;;;;26.88;12.75;;;12.10;99.90;;;;;;5046841;28;20029;-76
2023/10/27 10:23:38;;;;;;;40.03;14.07;;;12.10;99.90;;;;;;5034405;28;20029;-76
2023/10/27 10:26:04;;;;;;;39.53;13.55;;;12.10;99.90;;;;;;5041930;28;20032;-76
2023/10/27 10:28:33;;;;;;;32.75;12.90;;;12.20;99.90;;;;;;5050788;28;20017;-76
2023/10/27 10:31:13;;;;;;;28.85;12.57;;;12.20;99.90;;;;;;5062474;28;20078;-76
2023/10/27 10:33:48;;;;;;;42.72;13.75;;;12.20;99.90;;;;;;5042801;28;20387;-76
2023/10/27 10:36:22;;;;;;;35.42;13.63;;;12.20;99.90;;;;;;5057929;28;20041;-76
2023/10/27 10:39:04;;;;;;;26.23;12.80;;;12.20;99.90;;;;;;5051972;28;20128;-76
2023/10/27 10:41:43;;;;;;;36.17;12.80;;;12.20;99.90;;;;;;5046424;28;20079;-76
2023/10/27 10:44:16;;;;;;;25.77;11.93;;;12.20;99.90;;;;;;5052238;28;20083;-76
2023/10/27 10:46:44;;;;;;;33.22;13.18;;;12.20;99.90;;;;;;5056577;28;20489;-76
2023/10/27 10:49:11;;;;;;;34.75;12.65;;;12.30;99.90;;;;;;5054930;28;20111;-76
2023/10/27 10:51:37;;;;;;;39.53;11.05;;;12.30;99.90;;;;;;5052187;28;20071;-76
2023/10/27 10:54:08;;;;;;;25.13;10.05;;;12.30;99.90;;;;;;5064636;28;20025;-75
2023/10/27 10:56:34;;;;;;;22.02;9.00;;;12.30;99.90;;;;;;5060554;28;20565;-77
2023/10/27 10:59:03;;;;;;;21.20;8.70;;;12.30;99.90;;;;;;5059301;28;20028;-76
2023/10/27 11:01:29;;;;;;;21.23;7.55;;;12.30;99.90;;;;;;5059735;28;20028;-76
2023/10/27 11:03:55;;;;;;;25.65;9.32;;;12.30;99.90;;;;;;5059742;28;20013;-76
2023/10/27 11:06:24;;;;;;;22.27;8.52;;;12.30;99.90;;;;;;5051676;28;20025;-75
2023/10/27 11:08:50;;;;;;;30.00;10.65;;;12.40;99.90;;;;;;5054490;28;20035;-75
2023/10/27 11:11:16;;;;;;;34.90;11.07;;;12.40;99.90;;;;;;5049362;28;20111;-75
2023/10/27 11:13:51;;;;;;;23.13;10.55;;;12.40;99.90;;;;;;5040636;28;20048;-75
2023/10/27 11:16:24;;;;;;;27.92;10.80;;;12.40;99.90;;;;;;5047351;28;20024;-76
2023/10/27 11:19:02;;;;;;;31.05;11.27;;;12.40;99.90;;;;;;5058551;28;20166;-76
2023/10/27 11:21:30;;;;;;;30.45;10.43;;;12.40;99.90;;;;;;5048618;28;20247;-76
2023/10/27 11:23:56;;;;;;;16.73;9.07;;;12.50;99.90;;;;;;5046351;28;20160;-75
2023/10/27 11:26:26;;;;;;;29.38;10.25;;;12.50;99.90;;;;;;5046167;28;20066;-75
2023/10/27 11:28:55;;;;;;;30.15;10.38;;;12.50;99.90;;;;;;5051540;28;20025;-75
2023/10/27 11:31:29;;;;;;;33.90;10.35;;;12.50;99.90;;;;;;5050045;28;20029;-75
2023/10/27 11:33:56;;;;;;;27.40;10.45;;;12.50;99.90;;;;;;5055566;28;20050;-76
2023/10/27 11:36:22;;;;;;;19.02;9.07;;;12.50;99.90;;;;;;5049500;28;20190;-76
2023/10/27 11:38:48;;;;;;;29.77;10.23;;;12.50;99.90;;;;;;5062561;28;20108;-76
2023/10/27 11:41:14;;;;;;;14.77;8.40;;;12.50;99.90;;;;;;5049495;28;20094;-76
2023/10/27 11:43:40;;;;;;;14.50;8.20;;;12.50;99.90;;;;;;5051592;28;20077;-76
2023/10/27 11:46:17;;;;;;;14.98;7.95;;;12.50;99.90;;;;;;5051557;28;20033;-75
2023/10/27 11:48:44;;;;;;;14.45;7.45;;;12.40;99.90;;;;;;5051155;28;20020;-75
2023/10/27 11:51:11;;;;;;;15.00;8.38;;;12.40;99.90;;;;;;5045522;28;20031;-76
2023/10/27 11:53:41;;;;;;;16.75;8.57;;;12.40;99.90;;;;;;5050922;28;20033;-76
2023/10/27 11:56:07;;;;;;;22.38;9.18;;;12.40;99.90;;;;;;5060712;28;20371;-76
2023/10/27 11:58:33;;;;;;;20.75;8.80;;;12.40;99.90;;;;;;5046049;28;20017;-75
2023/10/27 12:00:58;;;;;;;21.48;8.93;;;12.50;99.90;;;;;;5050794;28;20020;-75
2023/10/27 12:03:24;;;;;;;13.63;8.00;;;12.40;99.90;;;;;;5057090;28;20116;-76
2023/10/27 12:05:50;;;;;;;18.65;8.18;;;12.40;99.90;;;;;;5060586;28;20119;-76
2023/10/27 12:08:15;;;;;;;13.57;6.63;;;12.40;99.90;;;;;;5054913;28;20103;-76
2023/10/27 12:10:41;;;;;;;11.90;6.32;;;12.40;99.90;;;;;;5064454;28;20024;-75
2023/10/27 12:13:07;;;;;;;11.80;5.97;;;12.30;99.90;;;;;;5052431;28;20445;-75
2023/10/27 12:15:38;;;;;;;10.98;6.22;;;12.30;99.90;;;;;;5055317;28;20679;-77
2023/10/27 12:18:04;;;;;;;18.17;6.85;;;12.30;99.90;;;;;;5062384;28;20021;-76
2023/10/27 12:20:31;;;;;;;10.60;5.70;;;12.30;99.90;;;;;;5051689;28;20474;-76
2023/10/27 12:22:57;;;;;;;16.30;6.68;;;12.30;99.90;;;;;;5051580;28;20393;-75
2023/10/27 12:25:23;;;;;;;15.27;6.63;;;12.30;99.90;;;;;;5057327;28;20397;-75
2023/10/27 12:27:48;;;;;;;13.20;6.28;;;12.40;99.90;;;;;;5054162;28;20032;-76